sensor_id;sensor_type;location;lat;lon;timestamp;P1;durP1;ratioP1;P2;durP2;ratioP2
20036;SDS011;10179;42.640;23.312;2024-03-23T00:54:31;16.55;;;7.70;;
20036;SDS011;10179;42.640;23.312;2024-03-23T00:56:57;14.18;;;6.97;;
20036;SDS011;10179;42.640;23.312;2024-03-23T00:59:22;16.10;;;7.85;;
20036;SDS011;10179;42.640;23.312;2024-03-23T01:01:52;11.45;;;6.88;;
20036;SDS011;10179;42.640;23.312;2024-03-23T01:04:17;14.73;;;7.55;;
20036;SDS011;10179;42.640;23.312;2024-03-23T01:06:43;11.32;;;7.32;;
20036;SDS011;10179;42.640;23.312;2024-03-23T01:09:08;14.32;;;7.85;;
20036;SDS011;10179;42.640;23.312;2024-03-23T01:11:35;15.35;;;7.25;;
20036;SDS011;10179;42.640;23.312;2024-03-23T01:14:01;13.65;;;7.57;;
20036;SDS011;10179;42.640;23.312;2024-03-23T01:16:27;19.00;;;8.88;;
20036;SDS011;10179;42.640;23.312;2024-03-23T01:18:52;18.83;;;8.80;;
20036;SDS011;10179;42.640;23.312;2024-03-23T01:21:18;16.00;;;6.93;;
20036;SDS011;10179;42.640;23.312;2024-03-23T01:23:43;25.60;;;10.63;;
20036;SDS011;10179;42.640;23.312;2024-03-23T01:26:08;22.90;;;9.80;;
20036;SDS011;10179;42.640;23.312;2024-03-23T01:28:34;17.25;;;8.00;;
20036;SDS011;10179;42.640;23.312;2024-03-23T01:30:59;16.75;;;6.95;;
20036;SDS011;10179;42.640;23.312;2024-03-23T01:33:25;12.07;;;5.97;;
20036;SDS011;10179;42.640;23.312;2024-03-23T01:35:50;11.93;;;5.28;;
20036;SDS011;10179;42.640;23.312;2024-03-23T01:38:16;11.32;;;5.38;;
20036;SDS011;10179;42.640;23.312;2024-03-23T01:40:41;16.13;;;7.45;;
20036;SDS011;10179;42.640;23.312;2024-03-23T01:43:07;15.27;;;7.45;;
20036;SDS011;10179;42.640;23.312;2024-03-23T01:45:33;15.52;;;8.38;;
20036;SDS011;10179;42.640;23.312;2024-03-23T01:47:59;17.27;;;8.32;;
20036;SDS011;10179;42.640;23.312;2024-03-23T01:50:25;18.52;;;8.52;;
20036;SDS011;10179;42.640;23.312;2024-03-23T01:52:51;20.65;;;9.10;;
20036;SDS011;10179;42.640;23.312;2024-03-23T01:55:17;14.60;;;7.97;;
20036;SDS011;10179;42.640;23.312;2024-03-23T01:57:42;12.52;;;6.65;;
20036;SDS011;10179;42.640;23.312;2024-03-23T02:00:08;11.20;;;6.20;;
20036;SDS011;10179;42.640;23.312;2024-03-23T02:02:40;11.98;;;6.78;;
20036;SDS011;10179;42.640;23.312;2024-03-23T02:05:09;11.38;;;5.55;;
20036;SDS011;10179;42.640;23.312;2024-03-23T02:07:35;16.60;;;6.30;;
20036;SDS011;10179;42.640;23.312;2024-03-23T02:10:01;14.20;;;6.13;;
20036;SDS011;10179;42.640;23.312;2024-03-23T02:12:26;15.88;;;6.85;;
20036;SDS011;10179;42.640;23.312;2024-03-23T02:14:52;11.85;;;5.50;;
20036;SDS011;10179;42.640;23.312;2024-03-23T02:17:17;13.25;;;5.43;;
20036;SDS011;10179;42.640;23.312;2024-03-23T02:19:42;12.48;;;5.47;;
20036;SDS011;10179;42.640;23.312;2024-03-23T02:22:08;15.73;;;6.45;;
20036;SDS011;10179;42.640;23.312;2024-03-23T02:24:35;11.50;;;5.82;;
20036;SDS011;10179;42.640;23.312;2024-03-23T02:27:01;15.20;;;6.72;;
20036;SDS011;10179;42.640;23.312;2024-03-23T02:29:27;12.27;;;6.78;;
20036;SDS011;10179;42.640;23.312;2024-03-23T02:31:52;14.43;;;7.00;;
20036;SDS011;10179;42.640;23.312;2024-03-23T02:34:18;17.05;;;7.93;;
20036;SDS011;10179;42.640;23.312;2024-03-23T02:36:43;14.60;;;7.53;;
20036;SDS011;10179;42.640;23.312;2024-03-23T02:39:08;16.15;;;7.80;;
20036;SDS011;10179;42.640;23.312;2024-03-23T02:41:34;14.05;;;7.47;;
20036;SDS011;10179;42.640;23.312;2024-03-23T02:43:59;13.55;;;7.60;;
20036;SDS011;10179;42.640;23.312;2024-03-23T02:46:24;16.25;;;8.35;;
20036;SDS011;10179;42.640;23.312;2024-03-23T02:48:50;12.20;;;7.20;;
20036;SDS011;10179;42.640;23.312;2024-03-23T02:51:15;11.27;;;6.00;;
20036;SDS011;10179;42.640;23.312;2024-03-23T02:53:40;11.48;;;5.07;;
20036;SDS011;10179;42.640;23.312;2024-03-23T02:56:06;11.68;;;6.18;;
20036;SDS011;10179;42.640;23.312;2024-03-23T02:58:32;23.88;;;8.00;;
20036;SDS011;10179;42.640;23.312;2024-03-23T03:00:57;15.15;;;7.03;;
20036;SDS011;10179;42.640;23.312;2024-03-23T03:03:23;8.80;;;4.93;;
20036;SDS011;10179;42.640;23.312;2024-03-23T03:05:54;7.60;;;4.75;;
20036;SDS011;10179;42.640;23.312;2024-03-23T03:08:20;10.05;;;5.85;;
20036;SDS011;10179;42.640;23.312;2024-03-23T03:10:45;9.90;;;5.70;;
20036;SDS011;10179;42.640;23.312;2024-03-23T03:13:10;8.70;;;5.13;;
20036;SDS011;10179;42.640;23.312;2024-03-23T03:15:36;13.60;;;7.72;;
20036;SDS011;10179;42.640;23.312;2024-03-23T03:18:01;14.10;;;6.68;;
20036;SDS011;10179;42.640;23.312;2024-03-23T03:20:26;10.13;;;6.32;;
20036;SDS011;10179;42.640;23.312;2024-03-23T03:22:52;11.40;;;6.25;;
20036;SDS011;10179;42.640;23.312;2024-03-23T03:25:18;12.00;;;6.85;;
20036;SDS011;10179;42.640;23.312;2024-03-23T03:27:44;11.40;;;5.85;;
20036;SDS011;10179;42.640;23.312;2024-03-23T03:30:09;12.57;;;5.75;;
20036;SDS011;10179;42.640;23.312;2024-03-23T03:32:35;22.35;;;7.45;;
20036;SDS011;10179;42.640;23.312;2024-03-23T03:35:00;23.85;;;8.95;;
20036;SDS011;10179;42.640;23.312;2024-03-23T03:37:26;24.25;;;10.35;;
20036;SDS011;10179;42.640;23.312;2024-03-23T03:39:51;26.58;;;9.00;;
20036;SDS011;10179;42.640;23.312;2024-03-23T03:42:16;14.88;;;6.15;;
20036;SDS011;10179;42.640;23.312;2024-03-23T03:44:42;18.88;;;6.82;;
20036;SDS011;10179;42.640;23.312;2024-03-23T03:47:07;15.05;;;7.13;;
20036;SDS011;10179;42.640;23.312;2024-03-23T03:49:33;13.02;;;6.30;;
20036;SDS011;10179;42.640;23.312;2024-03-23T03:51:58;14.93;;;6.57;;
20036;SDS011;10179;42.640;23.312;2024-03-23T03:54:23;13.63;;;7.40;;
20036;SDS011;10179;42.640;23.312;2024-03-23T03:56:49;14.07;;;6.28;;
20036;SDS011;10179;42.640;23.312;2024-03-23T03:59:14;16.25;;;7.32;;
20036;SDS011;10179;42.640;23.312;2024-03-23T04:01:40;15.77;;;6.65;;
20036;SDS011;10179;42.640;23.312;2024-03-23T04:04:06;12.98;;;6.78;;
20036;SDS011;10179;42.640;23.312;2024-03-23T04:06:31;14.07;;;6.70;;
20036;SDS011;10179;42.640;23.312;2024-03-23T04:08:58;13.85;;;6.78;;
20036;SDS011;10179;42.640;23.312;2024-03-23T04:11:23;12.23;;;6.35;;
20036;SDS011;10179;42.640;23.312;2024-03-23T04:13:49;18.10;;;7.50;;
20036;SDS011;10179;42.640;23.312;2024-03-23T04:16:24;23.80;;;7.95;;
20036;SDS011;10179;42.640;23.312;2024-03-23T04:18:51;15.27;;;7.85;;
20036;SDS011;10179;42.640;23.312;2024-03-23T04:21:16;18.55;;;7.95;;
20036;SDS011;10179;42.640;23.312;2024-03-23T04:23:41;18.75;;;8.48;;
20036;SDS011;10179;42.640;23.312;2024-03-23T04:26:07;17.73;;;8.80;;
20036;SDS011;10179;42.640;23.312;2024-03-23T04:28:32;20.35;;;9.68;;
20036;SDS011;10179;42.640;23.312;2024-03-23T04:30:57;15.18;;;8.65;;
20036;SDS011;10179;42.640;23.312;2024-03-23T04:33:23;15.43;;;8.07;;
20036;SDS011;10179;42.640;23.312;2024-03-23T04:35:49;16.17;;;8.13;;
20036;SDS011;10179;42.640;23.312;2024-03-23T04:38:14;18.15;;;8.20;;
20036;SDS011;10179;42.640;23.312;2024-03-23T04:40:41;12.70;;;7.03;;
20036;SDS011;10179;42.640;23.312;2024-03-23T04:43:06;13.35;;;7.65;;
20036;SDS011;10179;42.640;23.312;2024-03-23T04:45:32;18.33;;;7.82;;
20036;SDS011;10179;42.640;23.312;2024-03-23T04:47:57;13.43;;;7.18;;
20036;SDS011;10179;42.640;23.312;2024-03-23T04:50:22;16.55;;;8.13;;
20036;SDS011;10179;42.640;23.312;2024-03-23T04:52:48;16.83;;;8.25;;
20036;SDS011;10179;42.640;23.312;2024-03-23T04:55:13;14.27;;;7.53;;
20036;SDS011;10179;42.640;23.312;2024-03-23T04:57:39;18.38;;;9.07;;
20036;SDS011;10179;42.640;23.312;2024-03-23T05:00:05;18.58;;;8.55;;
20036;SDS011;10179;42.640;23.312;2024-03-23T05:02:41;22.80;;;9.77;;
20036;SDS011;10179;42.640;23.312;2024-03-23T05:05:07;20.85;;;10.35;;
20036;SDS011;10179;42.640;23.312;2024-03-23T05:07:32;22.52;;;9.85;;
20036;SDS011;10179;42.640;23.312;2024-03-23T05:09:58;22.52;;;10.85;;
20036;SDS011;10179;42.640;23.312;2024-03-23T05:12:23;23.73;;;10.77;;
20036;SDS011;10179;42.640;23.312;2024-03-23T05:14:49;21.38;;;10.40;;
20036;SDS011;10179;42.640;23.312;2024-03-23T05:17:15;21.50;;;10.27;;
20036;SDS011;10179;42.640;23.312;2024-03-23T05:19:40;21.50;;;10.63;;
20036;SDS011;10179;42.640;23.312;2024-03-23T05:22:05;27.38;;;10.98;;
20036;SDS011;10179;42.640;23.312;2024-03-23T05:24:31;18.90;;;10.85;;
20036;SDS011;10179;42.640;23.312;2024-03-23T05:26:56;21.50;;;10.38;;
20036;SDS011;10179;42.640;23.312;2024-03-23T05:29:24;24.73;;;11.63;;
20036;SDS011;10179;42.640;23.312;2024-03-23T05:31:51;23.88;;;12.30;;
20036;SDS011;10179;42.640;23.312;2024-03-23T05:34:17;21.80;;;11.27;;
20036;SDS011;10179;42.640;23.312;2024-03-23T05:36:43;25.65;;;10.80;;
20036;SDS011;10179;42.640;23.312;2024-03-23T05:39:08;18.05;;;8.90;;
20036;SDS011;10179;42.640;23.312;2024-03-23T05:41:33;26.20;;;11.88;;
20036;SDS011;10179;42.640;23.312;2024-03-23T05:44:01;19.88;;;11.23;;
20036;SDS011;10179;42.640;23.312;2024-03-23T05:46:27;23.85;;;10.30;;
20036;SDS011;10179;42.640;23.312;2024-03-23T05:48:52;22.95;;;11.02;;
20036;SDS011;10179;42.640;23.312;2024-03-23T05:51:17;21.45;;;11.05;;
20036;SDS011;10179;42.640;23.312;2024-03-23T05:53:43;32.25;;;11.60;;
20036;SDS011;10179;42.640;23.312;2024-03-23T05:56:08;24.98;;;11.30;;
20036;SDS011;10179;42.640;23.312;2024-03-23T05:58:34;20.20;;;11.10;;
20036;SDS011;10179;42.640;23.312;2024-03-23T06:01:00;24.05;;;11.70;;
20036;SDS011;10179;42.640;23.312;2024-03-23T06:03:27;28.67;;;13.25;;
20036;SDS011;10179;42.640;23.312;2024-03-23T06:05:53;24.13;;;11.35;;
20036;SDS011;10179;42.640;23.312;2024-03-23T06:08:18;24.65;;;11.15;;
20036;SDS011;10179;42.640;23.312;2024-03-23T06:10:44;20.92;;;11.25;;
20036;SDS011;10179;42.640;23.312;2024-03-23T06:13:10;24.60;;;11.43;;
20036;SDS011;10179;42.640;23.312;2024-03-23T06:15:36;27.52;;;11.00;;
20036;SDS011;10179;42.640;23.312;2024-03-23T06:18:03;26.33;;;12.60;;
20036;SDS011;10179;42.640;23.312;2024-03-23T06:20:29;20.45;;;11.18;;
20036;SDS011;10179;42.640;23.312;2024-03-23T06:22:55;24.88;;;10.77;;
20036;SDS011;10179;42.640;23.312;2024-03-23T06:25:20;22.15;;;10.48;;
20036;SDS011;10179;42.640;23.312;2024-03-23T06:27:46;23.42;;;10.40;;
20036;SDS011;10179;42.640;23.312;2024-03-23T06:30:11;22.92;;;9.80;;
20036;SDS011;10179;42.640;23.312;2024-03-23T06:32:37;21.88;;;10.63;;
20036;SDS011;10179;42.640;23.312;2024-03-23T06:35:02;20.23;;;10.40;;
20036;SDS011;10179;42.640;23.312;2024-03-23T06:37:33;21.60;;;10.55;;
20036;SDS011;10179;42.640;23.312;2024-03-23T06:39:59;23.40;;;10.73;;
20036;SDS011;10179;42.640;23.312;2024-03-23T06:42:24;21.55;;;9.38;;
20036;SDS011;10179;42.640;23.312;2024-03-23T06:44:49;28.40;;;10.07;;
20036;SDS011;10179;42.640;23.312;2024-03-23T06:47:15;24.85;;;9.30;;
20036;SDS011;10179;42.640;23.312;2024-03-23T06:49:40;16.10;;;8.60;;
20036;SDS011;10179;42.640;23.312;2024-03-23T06:52:05;16.73;;;8.60;;
20036;SDS011;10179;42.640;23.312;2024-03-23T06:54:31;15.07;;;8.40;;
20036;SDS011;10179;42.640;23.312;2024-03-23T06:56:56;14.82;;;8.27;;
20036;SDS011;10179;42.640;23.312;2024-03-23T06:59:22;15.98;;;8.60;;
20036;SDS011;10179;42.640;23.312;2024-03-23T07:01:47;15.93;;;8.45;;
20036;SDS011;10179;42.640;23.312;2024-03-23T07:04:12;17.73;;;9.75;;
20036;SDS011;10179;42.640;23.312;2024-03-23T07:06:44;19.20;;;9.70;;
20036;SDS011;10179;42.640;23.312;2024-03-23T07:09:10;21.13;;;10.65;;
20036;SDS011;10179;42.640;23.312;2024-03-23T07:11:36;18.30;;;9.75;;
20036;SDS011;10179;42.640;23.312;2024-03-23T07:14:01;16.13;;;8.77;;
20036;SDS011;10179;42.640;23.312;2024-03-23T07:16:27;19.58;;;8.30;;
20036;SDS011;10179;42.640;23.312;2024-03-23T07:18:53;15.85;;;9.40;;
20036;SDS011;10179;42.640;23.312;2024-03-23T07:21:19;15.80;;;9.15;;
20036;SDS011;10179;42.640;23.312;2024-03-23T07:23:44;21.52;;;8.27;;
20036;SDS011;10179;42.640;23.312;2024-03-23T07:26:10;21.85;;;10.57;;
20036;SDS011;10179;42.640;23.312;2024-03-23T07:28:35;17.48;;;9.38;;
20036;SDS011;10179;42.640;23.312;2024-03-23T07:33:30;15.35;;;8.73;;
20036;SDS011;10179;42.640;23.312;2024-03-23T07:35:56;18.38;;;9.85;;
20036;SDS011;10179;42.640;23.312;2024-03-23T07:38:21;17.15;;;9.35;;
20036;SDS011;10179;42.640;23.312;2024-03-23T07:40:46;17.05;;;10.07;;
20036;SDS011;10179;42.640;23.312;2024-03-23T07:43:14;13.90;;;8.68;;
20036;SDS011;10179;42.640;23.312;2024-03-23T07:45:40;18.70;;;9.18;;
20036;SDS011;10179;42.640;23.312;2024-03-23T07:48:05;16.38;;;9.02;;
20036;SDS011;10179;42.640;23.312;2024-03-23T07:50:31;20.50;;;9.82;;
20036;SDS011;10179;42.640;23.312;2024-03-23T07:52:57;16.42;;;7.78;;
20036;SDS011;10179;42.640;23.312;2024-03-23T07:55:22;14.55;;;8.20;;
20036;SDS011;10179;42.640;23.312;2024-03-23T07:57:47;15.80;;;9.70;;
20036;SDS011;10179;42.640;23.312;2024-03-23T08:00:13;15.43;;;8.27;;
20036;SDS011;10179;42.640;23.312;2024-03-23T08:02:38;16.75;;;8.55;;
20036;SDS011;10179;42.640;23.312;2024-03-23T08:05:04;14.25;;;8.07;;
20036;SDS011;10179;42.640;23.312;2024-03-23T08:07:30;14.50;;;8.15;;
20036;SDS011;10179;42.640;23.312;2024-03-23T08:09:56;19.55;;;8.38;;
20036;SDS011;10179;42.640;23.312;2024-03-23T08:12:21;29.58;;;10.75;;
20036;SDS011;10179;42.640;23.312;2024-03-23T08:14:46;37.78;;;10.05;;
20036;SDS011;10179;42.640;23.312;2024-03-23T08:17:12;21.67;;;9.10;;
20036;SDS011;10179;42.640;23.312;2024-03-23T08:19:37;17.20;;;8.98;;
20036;SDS011;10179;42.640;23.312;2024-03-23T08:22:03;20.40;;;9.05;;
20036;SDS011;10179;42.640;23.312;2024-03-23T08:24:28;18.90;;;8.82;;
20036;SDS011;10179;42.640;23.312;2024-03-23T08:26:55;19.50;;;10.20;;
20036;SDS011;10179;42.640;23.312;2024-03-23T08:29:20;17.02;;;8.55;;
20036;SDS011;10179;42.640;23.312;2024-03-23T08:31:46;14.15;;;8.82;;
20036;SDS011;10179;42.640;23.312;2024-03-23T08:34:11;16.85;;;9.60;;
20036;SDS011;10179;42.640;23.312;2024-03-23T08:36:36;21.70;;;9.63;;
20036;SDS011;10179;42.640;23.312;2024-03-23T08:39:02;15.23;;;8.70;;
20036;SDS011;10179;42.640;23.312;2024-03-23T08:41:27;16.70;;;7.68;;
20036;SDS011;10179;42.640;23.312;2024-03-23T08:43:52;22.85;;;9.65;;
20036;SDS011;10179;42.640;23.312;2024-03-23T08:46:18;18.80;;;7.47;;
20036;SDS011;10179;42.640;23.312;2024-03-23T08:48:44;24.50;;;8.80;;
20036;SDS011;10179;42.640;23.312;2024-03-23T08:51:11;18.20;;;9.90;;
20036;SDS011;10179;42.640;23.312;2024-03-23T08:53:38;20.75;;;9.00;;
20036;SDS011;10179;42.640;23.312;2024-03-23T08:56:04;30.23;;;10.10;;
20036;SDS011;10179;42.640;23.312;2024-03-23T08:58:31;18.83;;;8.80;;
20036;SDS011;10179;42.640;23.312;2024-03-23T09:01:07;13.63;;;7.80;;
20036;SDS011;10179;42.640;23.312;2024-03-23T09:03:38;18.42;;;8.57;;
20036;SDS011;10179;42.640;23.312;2024-03-23T09:06:07;15.57;;;8.27;;
20036;SDS011;10179;42.640;23.312;2024-03-23T09:08:33;12.45;;;7.38;;
20036;SDS011;10179;42.640;23.312;2024-03-23T09:11:03;18.33;;;7.82;;
20036;SDS011;10179;42.640;23.312;2024-03-23T09:13:30;14.75;;;7.55;;
20036;SDS011;10179;42.640;23.312;2024-03-23T09:15:56;11.57;;;6.80;;
20036;SDS011;10179;42.640;23.312;2024-03-23T09:18:21;18.92;;;7.80;;
20036;SDS011;10179;42.640;23.312;2024-03-23T09:20:47;15.52;;;8.25;;
20036;SDS011;10179;42.640;23.312;2024-03-23T09:23:12;17.33;;;7.78;;
20036;SDS011;10179;42.640;23.312;2024-03-23T09:25:38;17.70;;;9.15;;
20036;SDS011;10179;42.640;23.312;2024-03-23T09:28:04;25.15;;;9.77;;
20036;SDS011;10179;42.640;23.312;2024-03-23T09:30:31;14.70;;;8.48;;
20036;SDS011;10179;42.640;23.312;2024-03-23T09:32:58;21.50;;;10.35;;
20036;SDS011;10179;42.640;23.312;2024-03-23T09:35:23;19.10;;;8.35;;
20036;SDS011;10179;42.640;23.312;2024-03-23T09:37:48;18.38;;;8.18;;
20036;SDS011;10179;42.640;23.312;2024-03-23T09:40:15;13.02;;;8.30;;
20036;SDS011;10179;42.640;23.312;2024-03-23T09:42:41;13.60;;;7.68;;
20036;SDS011;10179;42.640;23.312;2024-03-23T09:45:16;13.10;;;7.93;;
20036;SDS011;10179;42.640;23.312;2024-03-23T09:47:45;13.95;;;7.40;;
20036;SDS011;10179;42.640;23.312;2024-03-23T09:50:12;15.55;;;7.60;;
20036;SDS011;10179;42.640;23.312;2024-03-23T09:52:38;12.30;;;7.70;;
20036;SDS011;10179;42.640;23.312;2024-03-23T09:55:04;13.73;;;7.75;;
20036;SDS011;10179;42.640;23.312;2024-03-23T09:57:29;13.95;;;7.43;;
20036;SDS011;10179;42.640;23.312;2024-03-23T09:59:55;28.13;;;9.60;;
20036;SDS011;10179;42.640;23.312;2024-03-23T10:02:21;12.52;;;7.55;;
20036;SDS011;10179;42.640;23.312;2024-03-23T10:04:47;12.13;;;7.18;;
20036;SDS011;10179;42.640;23.312;2024-03-23T10:07:14;16.02;;;7.55;;
20036;SDS011;10179;42.640;23.312;2024-03-23T10:09:42;14.48;;;7.05;;
20036;SDS011;10179;42.640;23.312;2024-03-23T10:12:08;12.75;;;7.47;;
20036;SDS011;10179;42.640;23.312;2024-03-23T10:14:38;14.38;;;7.72;;
20036;SDS011;10179;42.640;23.312;2024-03-23T10:17:20;18.00;;;8.00;;
20036;SDS011;10179;42.640;23.312;2024-03-23T10:19:50;13.02;;;6.43;;
20036;SDS011;10179;42.640;23.312;2024-03-23T10:22:21;11.50;;;5.90;;
20036;SDS011;10179;42.640;23.312;2024-03-23T10:24:48;13.27;;;7.43;;
20036;SDS011;10179;42.640;23.312;2024-03-23T10:27:18;12.27;;;6.78;;
20036;SDS011;10179;42.640;23.312;2024-03-23T10:29:47;17.02;;;7.20;;
20036;SDS011;10179;42.640;23.312;2024-03-23T10:32:14;15.23;;;7.43;;
20036;SDS011;10179;42.640;23.312;2024-03-23T10:34:40;19.05;;;7.35;;
20036;SDS011;10179;42.640;23.312;2024-03-23T10:37:06;14.48;;;6.75;;
20036;SDS011;10179;42.640;23.312;2024-03-23T10:39:40;18.20;;;6.47;;
20036;SDS011;10179;42.640;23.312;2024-03-23T10:42:06;13.70;;;6.47;;
20036;SDS011;10179;42.640;23.312;2024-03-23T10:44:33;13.35;;;6.80;;
20036;SDS011;10179;42.640;23.312;2024-03-23T10:46:59;15.15;;;6.47;;
20036;SDS011;10179;42.640;23.312;2024-03-23T10:49:30;16.00;;;7.03;;
20036;SDS011;10179;42.640;23.312;2024-03-23T10:51:57;15.57;;;6.95;;
20036;SDS011;10179;42.640;23.312;2024-03-23T10:54:24;9.77;;;6.15;;
20036;SDS011;10179;42.640;23.312;2024-03-23T10:56:51;12.27;;;6.47;;
20036;SDS011;10179;42.640;23.312;2024-03-23T10:59:22;13.17;;;6.80;;
20036;SDS011;10179;42.640;23.312;2024-03-23T11:01:55;14.35;;;7.15;;
20036;SDS011;10179;42.640;23.312;2024-03-23T11:04:31;11.57;;;6.28;;
20036;SDS011;10179;42.640;23.312;2024-03-23T11:07:02;12.98;;;6.30;;
20036;SDS011;10179;42.640;23.312;2024-03-23T11:09:40;12.82;;;6.47;;
20036;SDS011;10179;42.640;23.312;2024-03-23T11:14:46;12.38;;;6.25;;
20036;SDS011;10179;42.640;23.312;2024-03-23T11:17:17;11.40;;;6.13;;
20036;SDS011;10179;42.640;23.312;2024-03-23T11:19:43;10.85;;;6.00;;
20036;SDS011;10179;42.640;23.312;2024-03-23T11:22:09;14.70;;;6.53;;
20036;SDS011;10179;42.640;23.312;2024-03-23T11:24:34;15.55;;;6.10;;
20036;SDS011;10179;42.640;23.312;2024-03-23T11:27:00;10.30;;;5.45;;
20036;SDS011;10179;42.640;23.312;2024-03-23T11:29:28;12.95;;;6.03;;
20036;SDS011;10179;42.640;23.312;2024-03-23T11:31:55;11.63;;;6.72;;
20036;SDS011;10179;42.640;23.312;2024-03-23T11:34:20;13.05;;;6.50;;
20036;SDS011;10179;42.640;23.312;2024-03-23T11:36:47;10.82;;;6.32;;
20036;SDS011;10179;42.640;23.312;2024-03-23T11:39:16;14.02;;;6.68;;
20036;SDS011;10179;42.640;23.312;2024-03-23T11:41:46;12.20;;;6.38;;
20036;SDS011;10179;42.640;23.312;2024-03-23T11:44:16;14.35;;;6.18;;
20036;SDS011;10179;42.640;23.312;2024-03-23T11:46:46;16.17;;;6.40;;
20036;SDS011;10179;42.640;23.312;2024-03-23T11:49:22;14.98;;;6.05;;
20036;SDS011;10179;42.640;23.312;2024-03-23T11:51:52;17.35;;;6.40;;
20036;SDS011;10179;42.640;23.312;2024-03-23T11:54:25;11.52;;;5.13;;
20036;SDS011;10179;42.640;23.312;2024-03-23T11:56:58;9.95;;;5.07;;
20036;SDS011;10179;42.640;23.312;2024-03-23T12:01:56;11.00;;;5.68;;
20036;SDS011;10179;42.640;23.312;2024-03-23T12:04:28;16.75;;;5.20;;
20036;SDS011;10179;42.640;23.312;2024-03-23T12:09:35;9.82;;;5.40;;
20036;SDS011;10179;42.640;23.312;2024-03-23T12:12:16;16.90;;;5.00;;
20036;SDS011;10179;42.640;23.312;2024-03-23T12:14:43;11.52;;;4.30;;
20036;SDS011;10179;42.640;23.312;2024-03-23T12:17:12;9.25;;;4.03;;
20036;SDS011;10179;42.640;23.312;2024-03-23T12:19:39;8.13;;;4.15;;
20036;SDS011;10179;42.640;23.312;2024-03-23T12:22:05;10.95;;;4.47;;
20036;SDS011;10179;42.640;23.312;2024-03-23T12:24:31;10.75;;;4.88;;
20036;SDS011;10179;42.640;23.312;2024-03-23T12:26:59;9.82;;;4.88;;
20036;SDS011;10179;42.640;23.312;2024-03-23T12:29:29;9.20;;;4.97;;
20036;SDS011;10179;42.640;23.312;2024-03-23T12:31:59;11.00;;;5.43;;
20036;SDS011;10179;42.640;23.312;2024-03-23T12:34:25;12.00;;;5.82;;
20036;SDS011;10179;42.640;23.312;2024-03-23T12:36:51;11.38;;;5.15;;
20036;SDS011;10179;42.640;23.312;2024-03-23T12:39:16;14.10;;;4.93;;
20036;SDS011;10179;42.640;23.312;2024-03-23T12:41:43;21.13;;;4.15;;
20036;SDS011;10179;42.640;23.312;2024-03-23T12:44:08;5.45;;;2.97;;
20036;SDS011;10179;42.640;23.312;2024-03-23T12:46:36;5.45;;;2.40;;
20036;SDS011;10179;42.640;23.312;2024-03-23T12:49:02;4.75;;;2.75;;
20036;SDS011;10179;42.640;23.312;2024-03-23T12:51:28;5.85;;;2.88;;
20036;SDS011;10179;42.640;23.312;2024-03-23T12:53:53;10.65;;;3.53;;
20036;SDS011;10179;42.640;23.312;2024-03-23T12:56:19;4.18;;;3.20;;
20036;SDS011;10179;42.640;23.312;2024-03-23T12:58:44;7.72;;;3.72;;
20036;SDS011;10179;42.640;23.312;2024-03-23T13:01:09;5.45;;;3.00;;
20036;SDS011;10179;42.640;23.312;2024-03-23T13:03:35;8.90;;;3.08;;
20036;SDS011;10179;42.640;23.312;2024-03-23T13:06:00;8.45;;;2.50;;
20036;SDS011;10179;42.640;23.312;2024-03-23T13:08:26;4.45;;;2.10;;
20036;SDS011;10179;42.640;23.312;2024-03-23T13:10:51;3.63;;;1.77;;
20036;SDS011;10179;42.640;23.312;2024-03-23T13:13:17;4.80;;;1.92;;
20036;SDS011;10179;42.640;23.312;2024-03-23T13:15:48;4.30;;;1.83;;
20036;SDS011;10179;42.640;23.312;2024-03-23T13:18:15;4.80;;;2.00;;
20036;SDS011;10179;42.640;23.312;2024-03-23T13:20:40;3.65;;;1.85;;
20036;SDS011;10179;42.640;23.312;2024-03-23T13:23:05;5.15;;;1.65;;
20036;SDS011;10179;42.640;23.312;2024-03-23T13:25:31;2.08;;;1.00;;
20036;SDS011;10179;42.640;23.312;2024-03-23T13:27:56;1.60;;;1.00;;
20036;SDS011;10179;42.640;23.312;2024-03-23T13:30:21;4.63;;;0.80;;
20036;SDS011;10179;42.640;23.312;2024-03-23T13:32:47;1.17;;;0.80;;
20036;SDS011;10179;42.640;23.312;2024-03-23T13:35:12;5.18;;;1.30;;
20036;SDS011;10179;42.640;23.312;2024-03-23T13:37:37;6.53;;;1.58;;
20036;SDS011;10179;42.640;23.312;2024-03-23T13:40:03;2.95;;;1.00;;
20036;SDS011;10179;42.640;23.312;2024-03-23T13:42:28;4.20;;;1.30;;
20036;SDS011;10179;42.640;23.312;2024-03-23T13:44:54;7.40;;;1.65;;
20036;SDS011;10179;42.640;23.312;2024-03-23T13:47:19;2.95;;;1.10;;
20036;SDS011;10179;42.640;23.312;2024-03-23T13:49:45;5.03;;;1.67;;
20036;SDS011;10179;42.640;23.312;2024-03-23T13:52:10;1.30;;;1.00;;
20036;SDS011;10179;42.640;23.312;2024-03-23T13:54:36;1.85;;;1.33;;
20036;SDS011;10179;42.640;23.312;2024-03-23T13:57:02;1.48;;;0.90;;
20036;SDS011;10179;42.640;23.312;2024-03-23T13:59:28;3.75;;;2.00;;
20036;SDS011;10179;42.640;23.312;2024-03-23T14:01:53;4.00;;;1.65;;
20036;SDS011;10179;42.640;23.312;2024-03-23T14:04:19;10.32;;;1.98;;
20036;SDS011;10179;42.640;23.312;2024-03-23T14:06:45;7.13;;;2.10;;
20036;SDS011;10179;42.640;23.312;2024-03-23T14:09:14;2.15;;;1.33;;
20036;SDS011;10179;42.640;23.312;2024-03-23T14:11:45;1.70;;;1.02;;
20036;SDS011;10179;42.640;23.312;2024-03-23T14:14:10;2.67;;;1.00;;
20036;SDS011;10179;42.640;23.312;2024-03-23T14:16:35;6.88;;;1.65;;
20036;SDS011;10179;42.640;23.312;2024-03-23T14:19:01;4.03;;;1.60;;
20036;SDS011;10179;42.640;23.312;2024-03-23T14:21:26;9.05;;;2.22;;
20036;SDS011;10179;42.640;23.312;2024-03-23T14:23:52;10.50;;;1.25;;
20036;SDS011;10179;42.640;23.312;2024-03-23T14:26:19;4.05;;;1.27;;
20036;SDS011;10179;42.640;23.312;2024-03-23T14:28:45;4.38;;;1.50;;
20036;SDS011;10179;42.640;23.312;2024-03-23T14:31:10;2.67;;;1.48;;
20036;SDS011;10179;42.640;23.312;2024-03-23T14:33:36;5.82;;;1.27;;
20036;SDS011;10179;42.640;23.312;2024-03-23T14:36:03;2.30;;;1.00;;
20036;SDS011;10179;42.640;23.312;2024-03-23T14:38:29;4.32;;;1.02;;
20036;SDS011;10179;42.640;23.312;2024-03-23T14:40:57;2.80;;;0.90;;
20036;SDS011;10179;42.640;23.312;2024-03-23T14:43:23;2.10;;;1.00;;
20036;SDS011;10179;42.640;23.312;2024-03-23T14:48:41;3.55;;;1.10;;
20036;SDS011;10179;42.640;23.312;2024-03-23T14:51:08;8.77;;;1.67;;
20036;SDS011;10179;42.640;23.312;2024-03-23T14:53:34;8.85;;;1.63;;
20036;SDS011;10179;42.640;23.312;2024-03-23T14:56:01;2.90;;;1.20;;
20036;SDS011;10179;42.640;23.312;2024-03-23T14:58:27;1.88;;;1.25;;
20036;SDS011;10179;42.640;23.312;2024-03-23T15:00:59;3.13;;;1.77;;
20036;SDS011;10179;42.640;23.312;2024-03-23T15:03:26;3.72;;;1.10;;
20036;SDS011;10179;42.640;23.312;2024-03-23T15:05:54;1.35;;;0.90;;
20036;SDS011;10179;42.640;23.312;2024-03-23T15:08:21;1.25;;;0.80;;
20036;SDS011;10179;42.640;23.312;2024-03-23T15:10:47;2.65;;;1.23;;
20036;SDS011;10179;42.640;23.312;2024-03-23T15:13:12;2.00;;;1.15;;
20036;SDS011;10179;42.640;23.312;2024-03-23T15:15:40;4.30;;;1.15;;
20036;SDS011;10179;42.640;23.312;2024-03-23T15:18:09;34.20;;;11.07;;
20036;SDS011;10179;42.640;23.312;2024-03-23T15:20:41;5.13;;;2.40;;
20036;SDS011;10179;42.640;23.312;2024-03-23T15:23:07;2.75;;;1.25;;
20036;SDS011;10179;42.640;23.312;2024-03-23T15:25:32;2.10;;;1.20;;